Time;durP1;ratioP1;P1;durP2;ratioP2;P2;SDS_P1;SDS_P2;PMS_P1;PMS_P2;Temp;Humidity;BMP_temperature;BMP_pressure;BME280_temperature;BME280_humidity;BME280_pressure;Samples;Min_cycle;Max_cycle;Signal;HPM_P1;HPM_P2
2023/11/02 00:01:53;;;;;;;0.70;0.70;;;;;;;11.03;80.77;97292.31;6319349;22;42395;-87
2023/11/02 00:04:23;;;;;;;1.10;0.90;;;;;;;10.94;80.85;97285.19;6319837;22;40544;-90
2023/11/02 00:06:52;;;;;;;2.13;0.73;;;;;;;10.91;80.78;97274.88;6319550;22;41996;-88
2023/11/02 00:09:35;;;;;;;1.37;0.90;;;;;;;10.91;81.41;97271.38;6319149;22;43251;-88
2023/11/02 00:12:07;;;;;;;0.70;0.60;;;;;;;10.90;81.06;97265.25;6307841;22;41372;-88
2023/11/02 00:14:36;;;;;;;1.83;1.00;;;;;;;10.77;81.14;97254.06;6320751;22;38982;-89
2023/11/02 00:17:16;;;;;;;1.37;0.70;;;;;;;10.84;81.89;97252.56;6320961;22;42450;-88
2023/11/02 00:19:44;;;;;;;0.70;0.70;;;;;;;10.46;82.31;97197.72;6320550;22;41767;-90
2023/11/02 00:22:13;;;;;;;0.80;0.80;;;;;;;10.78;81.89;97245.16;6320821;22;42778;-87
2023/11/02 00:24:43;;;;;;;2.47;1.10;;;;;;;10.64;82.24;97227.84;6320581;22;38650;-89
2023/11/02 00:27:12;;;;;;;1.20;0.70;;;;;;;10.62;82.29;97234.28;6318882;22;40797;-89
2023/11/02 00:29:39;;;;;;;1.40;1.10;;;;;;;10.69;82.81;97251.28;6318967;22;41807;-90
2023/11/02 00:32:08;;;;;;;1.20;1.00;;;;;;;10.66;83.35;97236.50;6319396;22;42967;-89
2023/11/02 00:34:39;;;;;;;1.10;0.80;;;;;;;10.51;83.13;97206.09;6319626;22;40291;-89
2023/11/02 00:37:07;;;;;;;1.23;0.90;;;;;;;10.65;82.69;97220.75;6319161;22;40616;-88
2023/11/02 00:39:38;;;;;;;1.57;0.97;;;;;;;10.55;83.00;97207.50;6318877;22;43286;-88
2023/11/02 00:42:06;;;;;;;1.57;1.07;;;;;;;10.61;83.09;97212.25;6319414;22;42499;-88
2023/11/02 00:44:34;;;;;;;1.00;0.90;;;;;;;10.58;83.12;97198.47;6293608;22;40238;-88
2023/11/02 00:47:03;;;;;;;2.57;1.17;;;;;;;10.56;82.90;97192.47;6319198;22;43079;-87
2023/11/02 00:49:32;;;;;;;2.83;1.20;;;;;;;10.49;82.97;97188.69;6319243;22;43209;-89
2023/11/02 00:52:00;;;;;;;2.07;1.30;;;;;;;10.45;83.01;97174.88;6319462;22;41024;-87
2023/11/02 00:55:01;;;;;;;2.03;1.07;;;;;;;10.47;83.31;97170.31;6319151;22;40852;-89
2023/11/02 00:57:37;;;;;;;1.07;0.97;;;;;;;10.37;83.46;97151.75;6319005;22;41098;-88
2023/11/02 01:00:06;;;;;;;1.47;1.10;;;;;;;10.39;83.64;97155.09;6319063;22;42254;-88
2023/11/02 01:02:35;;;;;;;1.20;0.97;;;;;;;10.26;83.36;97143.09;6319160;22;42313;-90
2023/11/02 01:05:05;;;;;;;0.80;0.70;;;;;;;10.22;83.54;97147.81;6326924;22;39061;-87
2023/11/02 01:07:33;;;;;;;1.00;0.90;;;;;;;10.20;83.21;97152.41;6369608;22;41744;-87
2023/11/02 01:10:05;;;;;;;1.13;0.83;;;;;;;10.18;83.37;97157.00;6324425;22;44364;-87
2023/11/02 01:12:36;;;;;;;1.00;0.83;;;;;;;10.22;83.62;97157.56;6320803;22;41077;-87
2023/11/02 01:15:06;;;;;;;0.80;0.70;;;;;;;10.18;83.12;97154.34;6321807;22;40460;-88
2023/11/02 01:17:37;;;;;;;0.77;0.77;;;;;;;9.98;83.56;97128.78;6322225;22;40728;-90
2023/11/02 01:20:08;;;;;;;1.70;0.80;;;;;;;10.08;83.52;97156.09;6321827;22;44215;-88
2023/11/02 01:22:52;;;;;;;0.70;0.63;;;;;;;10.06;83.86;97147.47;6321709;22;42141;-89
2023/11/02 01:25:23;;;;;;;0.83;0.70;;;;;;;10.02;83.48;97151.34;6345373;22;39921;-87
2023/11/02 01:27:53;;;;;;;0.53;0.47;;;;;;;9.88;83.47;97127.94;6321819;22;41695;-89
2023/11/02 01:30:57;;;;;;;1.67;0.63;;;;;;;9.91;83.46;97127.63;6322004;22;43262;-89
2023/11/02 11:27:57;;;;;;;0.47;0.47;;;;;;;11.76;100.00;96172.03;5675740;22;15109717;-86
2023/11/02 11:30:44;;;;;;;1.80;0.80;;;;;;;12.00;100.00;96176.44;6285220;22;42830;-89
2023/11/02 11:33:49;;;;;;;0.60;0.60;;;;;;;12.29;100.00;96197.09;6260063;22;41577;-87
2023/11/02 11:37:03;;;;;;;1.90;1.00;;;;;;;12.14;100.00;96180.22;6259718;22;40858;-88
2023/11/02 11:39:51;;;;;;;1.37;0.93;;;;;;;12.30;100.00;96195.28;6202531;22;41014;-88
2023/11/02 11:43:19;;;;;;;2.33;0.70;;;;;;;12.29;100.00;96178.53;6202852;22;44668;-88
2023/11/02 11:46:42;;;;;;;1.50;0.80;;;;;;;12.39;100.00;96232.22;6204615;22;42080;-89
2023/11/02 11:49:48;;;;;;;0.90;0.80;;;;;;;12.23;100.00;96195.16;6198986;22;41107;-87
2023/11/02 12:00:12;;;;;;;0.80;0.80;;;;;;;12.27;100.00;96187.66;6338458;22;42764;-86
2023/11/02 12:02:40;;;;;;;2.77;0.90;;;;;;;12.34;100.00;96202.72;6296753;22;39093;-86
2023/11/02 12:05:09;;;;;;;1.40;0.70;;;;;;;12.32;100.00;96193.28;6321896;22;41991;-85
2023/11/02 12:07:37;;;;;;;0.80;0.80;;;;;;;12.21;100.00;96186.53;6296261;22;45201;-88
2023/11/02 12:10:07;;;;;;;1.23;0.77;;;;;;;12.17;100.00;96187.84;6296095;22;40874;-89
2023/11/02 12:12:35;;;;;;;1.60;0.93;;;;;;;12.22;100.00;96209.41;6297703;22;38733;-88
2023/11/02 12:15:18;;;;;;;1.00;0.80;;;;;;;12.26;100.00;96231.09;6323144;22;41579;-89
2023/11/02 12:17:49;;;;;;;0.50;0.50;;;;;;;12.37;100.00;96234.22;6297835;22;42985;-88
2023/11/02 12:20:33;;;;;;;0.60;0.60;;;;;;;12.40;100.00;96217.94;6323726;22;42358;-88
2023/11/02 12:23:00;;;;;;;0.73;0.70;;;;;;;12.30;100.00;96212.03;6321933;22;39971;-90
2023/11/02 12:25:28;;;;;;;1.37;0.73;;;;;;;12.27;100.00;96191.13;6295151;22;40797;-89
2023/11/02 12:27:56;;;;;;;1.33;0.80;;;;;;;12.20;100.00;96180.38;6289626;22;42315;-89
2023/11/02 12:30:25;;;;;;;2.67;0.80;;;;;;;12.25;100.00;96163.94;6283877;22;42017;-90
2023/11/02 12:32:52;;;;;;;1.20;0.90;;;;;;;12.30;100.00;96161.59;6289057;22;38832;-86
2023/11/02 12:35:21;;;;;;;1.67;0.57;;;;;;;12.28;100.00;96155.63;6288520;22;40831;-87
2023/11/02 12:38:00;;;;;;;1.07;0.73;;;;;;;12.41;100.00;96150.59;6288808;22;43341;-88
2023/11/02 12:40:27;;;;;;;1.67;1.00;;;;;;;12.33;100.00;96136.56;6288698;22;41081;-87
2023/11/02 12:42:55;;;;;;;0.93;0.70;;;;;;;12.47;100.00;96143.78;6291547;22;38794;-86
2023/11/02 12:45:25;;;;;;;0.80;0.80;;;;;;;12.53;100.00;96122.69;6303376;22;40809;-89
2023/11/02 12:47:53;;;;;;;1.20;0.70;;;;;;;12.52;100.00;96104.25;6309530;22;44148;-88
2023/11/02 12:50:27;;;;;;;1.17;0.70;;;;;;;12.44;100.00;96062.69;6288904;22;42504;-87
2023/11/02 12:52:55;;;;;;;0.80;0.80;;;;;;;12.44;100.00;96051.25;6288635;22;40326;-86
2023/11/02 12:55:25;;;;;;;1.63;0.80;;;;;;;12.33;100.00;96028.59;6288702;22;41424;-87
2023/11/02 12:57:53;;;;;;;1.20;0.80;;;;;;;12.39;100.00;96043.81;6314697;22;43119;-88
2023/11/02 13:00:21;;;;;;;0.50;0.50;;;;;;;12.42;100.00;96040.81;6288633;22;43648;-85
2023/11/02 13:02:50;;;;;;;0.90;0.63;;;;;;;12.40;99.98;96037.50;6288720;22;39223;-86
2023/11/02 13:05:20;;;;;;;1.37;0.80;;;;;;;12.50;99.37;96059.31;6288709;22;41121;-89
2023/11/02 13:07:52;;;;;;;1.00;0.80;;;;;;;12.41;98.42;96041.81;6341962;22;43548;-89
2023/11/02 13:10:20;;;;;;;1.70;0.70;;;;;;;12.48;98.56;96061.34;6314919;22;42202;-87
2023/11/02 13:12:48;;;;;;;3.90;0.80;;;;;;;12.50;98.60;96067.28;6289444;22;38754;-89
2023/11/02 13:15:16;;;;;;;1.27;0.80;;;;;;;12.49;98.09;96051.53;6290172;22;43711;-90
2023/11/02 13:17:46;;;;;;;2.97;0.90;;;;;;;12.38;98.19;96007.66;6290256;22;43487;-87
2023/11/02 13:20:18;;;;;;;1.30;0.80;;;;;;;12.43;97.71;96005.31;6290330;22;43915;-88
2023/11/02 13:22:47;;;;;;;2.53;0.77;;;;;;;12.43;97.97;95988.56;6289925;22;40501;-86
2023/11/02 13:25:15;;;;;;;2.27;0.73;;;;;;;12.47;97.01;96014.56;6289874;22;40537;-93
2023/11/02 13:27:44;;;;;;;1.43;0.80;;;;;;;12.45;96.79;96035.16;6314173;22;43518;-87
2023/11/02 13:30:14;;;;;;;0.93;0.70;;;;;;;12.45;96.03;96044.94;6287848;22;42872;-87
2023/11/02 13:32:41;;;;;;;1.97;0.80;;;;;;;12.54;96.56;96057.97;6288150;22;39987;-86
2023/11/02 13:35:09;;;;;;;1.27;0.80;;;;;;;12.46;96.64;96060.69;6314247;22;42819;-85
2023/11/02 13:37:39;;;;;;;1.70;0.83;;;;;;;12.37;95.54;96043.16;6288014;22;41829;-87
2023/11/02 13:40:10;;;;;;;1.27;0.80;;;;;;;12.39;95.74;96035.84;6288125;22;42201;-91
2023/11/02 13:42:37;;;;;;;0.70;0.70;;;;;;;12.46;95.16;96044.75;6288172;22;40342;-87
2023/11/02 13:45:07;;;;;;;1.60;0.90;;;;;;;12.48;95.40;96024.19;6313966;22;41233;-87
2023/11/02 13:47:35;;;;;;;0.70;0.60;;;;;;;12.46;94.97;96052.72;6288380;22;42882;-88
2023/11/02 13:50:03;;;;;;;0.70;0.63;;;;;;;12.42;94.49;96083.25;6287641;22;43515;-89
2023/11/02 13:52:32;;;;;;;1.70;0.90;;;;;;;12.50;94.59;96096.47;6288417;22;39224;-87
2023/11/02 13:55:02;;;;;;;1.10;0.80;;;;;;;12.44;94.60;96097.19;6313498;22;42017;-89
2023/11/02 13:57:30;;;;;;;0.90;0.50;;;;;;;12.38;94.67;96076.63;6288260;22;43037;-86
2023/11/02 14:00:00;;;;;;;1.17;0.60;;;;;;;12.31;94.45;96070.41;6287943;22;42721;-88
2023/11/02 14:02:28;;;;;;;0.70;0.60;;;;;;;12.48;94.50;96093.19;6314631;22;39522;-89
2023/11/02 14:04:56;;;;;;;0.50;0.50;;;;;;;12.43;94.95;96076.13;6287500;22;42684;-88
2023/11/02 14:07:25;;;;;;;0.50;0.50;;;;;;;12.54;95.00;96055.31;6288164;22;42065;-89
2023/11/02 14:09:53;;;;;;;0.50;0.50;;;;;;;12.75;94.33;96061.78;6313539;22;41276;-92
2023/11/02 14:12:23;;;;;;;0.60;0.60;;;;;;;12.75;93.31;96027.28;6289020;22;39043;-89
2023/11/02 14:14:51;;;;;;;1.00;0.60;;;;;;;12.78;92.89;96008.34;6288424;22;42242;-84
2023/11/02 14:17:22;;;;;;;1.10;0.70;;;;;;;12.66;92.62;95988.53;6314527;22;42992;-87
2023/11/02 14:19:50;;;;;;;4.07;0.80;;;;;;;12.72;92.23;96019.69;6289106;22;43144;-87
2023/11/02 14:22:18;;;;;;;2.07;1.10;;;;;;;12.59;92.33;96021.13;6289050;22;40325;-85
2023/11/02 14:24:48;;;;;;;0.83;0.77;;;;;;;12.64;92.05;96023.22;6288685;22;42223;-90
2023/11/02 14:27:15;;;;;;;1.50;0.73;;;;;;;12.57;92.49;96025.78;6289033;22;44034;-86
2023/11/02 15:58:45;;;;;;;3.43;1.70;;;;;;;9.83;100.00;95973.25;5108551;28;20562;-87
2023/11/02 16:01:29;;;;;;;2.00;1.07;;;;;;;10.37;100.00;95966.59;5090594;28;38757;-90
2023/11/02 16:04:18;;;;;;;1.80;1.00;;;;;;;10.96;100.00;95998.13;5089819;28;40966;-92
